createdAt,value
2022-09-05T00:00:02.407Z,36.80
2022-09-05T00:02:50.370Z,37.00
2022-09-05T00:05:31.214Z,36.80
2022-09-05T00:08:06.874Z,37.10
2022-09-05T00:10:46.667Z,36.90
2022-09-05T00:13:35.854Z,36.90
2022-09-05T00:16:22.683Z,36.90
2022-09-05T00:21:16.401Z,37.00
2022-09-05T00:24:25.189Z,37.50
2022-09-05T00:25:14.869Z,37.00
2022-09-05T00:27:51.591Z,37.20
2022-09-05T00:31:08.640Z,37.00
2022-09-05T00:33:23.122Z,37.20
2022-09-05T00:36:13.367Z,37.20
2022-09-05T00:38:43.229Z,37.20
2022-09-05T00:41:13.281Z,37.20
2022-09-05T00:43:43.782Z,37.30
2022-09-05T00:46:16.576Z,37.30
2022-09-05T00:48:49.467Z,37.50
2022-09-05T00:51:32.149Z,37.70
2022-09-05T00:54:27.097Z,37.80
2022-09-05T00:57:28.116Z,37.50
2022-09-05T01:00:14.933Z,37.50
2022-09-05T01:03:17.765Z,37.90
2022-09-05T01:06:20.589Z,37.80
2022-09-05T01:09:11.034Z,37.70
2022-09-05T01:11:52.263Z,37.70
2022-09-05T01:14:47.046Z,38.50
2022-09-05T01:17:32.372Z,37.70
2022-09-05T01:20:24.732Z,38.60
2022-09-05T01:23:12.882Z,37.60
2022-09-05T01:25:55.317Z,37.90
2022-09-05T01:29:16.104Z,37.90
2022-09-05T01:31:24.405Z,38.00
2022-09-05T01:33:59.453Z,38.10
2022-09-05T01:36:39.420Z,38.20
2022-09-05T01:40:14.684Z,38.10
2022-09-05T01:42:15.107Z,38.10
2022-09-05T01:44:49.699Z,38.20
2022-09-05T01:47:31.102Z,38.40
2022-09-05T01:50:06.964Z,38.60
2022-09-05T01:53:00.001Z,38.40
2022-09-05T01:56:05.196Z,38.60
2022-09-05T01:58:47.758Z,38.60
2022-09-05T02:01:30.154Z,38.40
2022-09-05T02:04:16.656Z,38.90
2022-09-05T02:06:51.709Z,38.80
2022-09-05T02:09:40.832Z,38.90
2022-09-05T02:12:21.840Z,39.10
2022-09-05T02:14:56.585Z,38.80
2022-09-05T02:17:49.803Z,38.70
2022-09-05T02:20:23.596Z,38.60
2022-09-05T02:23:01.512Z,39.00
2022-09-05T02:26:01.490Z,39.00
2022-09-05T02:28:34.903Z,38.80
2022-09-05T02:31:19.921Z,38.80
2022-09-05T02:34:01.693Z,39.10
2022-09-05T02:36:37.773Z,39.00
2022-09-05T02:45:02.165Z,39.30
2022-09-05T02:45:20.533Z,39.30
2022-09-05T02:45:26.783Z,39.10
2022-09-05T02:48:09.670Z,39.40
2022-09-05T02:54:02.059Z,39.10
2022-09-05T02:57:38.986Z,39.00
2022-09-05T02:57:40.794Z,39.10
2022-09-05T02:59:46.203Z,39.30
2022-09-05T03:02:25.545Z,40.10
2022-09-05T03:05:04.550Z,39.30
2022-09-05T03:07:49.428Z,38.90
2022-09-05T03:10:54.458Z,38.80
2022-09-05T03:13:57.611Z,38.70
2022-09-05T03:17:09.951Z,39.00
2022-09-05T03:20:13.274Z,38.90
2022-09-05T03:23:16.687Z,38.90
2022-09-05T03:26:23.043Z,39.10
2022-09-05T03:29:29.743Z,38.90
2022-09-05T03:32:20.761Z,38.80
2022-09-05T03:35:23.066Z,39.30
2022-09-05T03:38:12.720Z,39.00
2022-09-05T03:40:59.456Z,39.50
2022-09-05T03:43:49.273Z,39.60
2022-09-05T03:46:27.742Z,39.80
2022-09-05T03:50:27.434Z,39.60
2022-09-05T03:57:06.421Z,39.50
2022-09-05T03:57:11.161Z,39.40
2022-09-05T03:58:55.913Z,39.50
2022-09-05T04:03:15.868Z,39.50
2022-09-05T04:08:13.866Z,39.60
2022-09-05T04:08:18.449Z,39.60
2022-09-05T04:10:21.371Z,39.50
2022-09-05T04:12:52.703Z,39.40
2022-09-05T04:15:30.538Z,39.60
2022-09-05T04:18:03.759Z,39.50
2022-09-05T04:20:40.600Z,39.60
2022-09-05T04:23:25.175Z,39.60
2022-09-05T04:26:11.910Z,39.80
2022-09-05T04:28:53.590Z,39.80
2022-09-05T04:31:30.596Z,39.50
2022-09-05T04:34:15.586Z,39.30
2022-09-05T04:36:43.828Z,39.50
2022-09-05T04:39:25.347Z,39.30
2022-09-05T04:41:58.440Z,39.40
2022-09-05T04:44:29.629Z,39.50
2022-09-05T04:47:00.406Z,39.30
2022-09-05T04:49:30.197Z,39.60
2022-09-05T04:52:31.566Z,39.50
2022-09-05T04:55:05.225Z,39.50
2022-09-05T04:57:37.474Z,39.60
2022-09-05T05:05:38.008Z,39.80
2022-09-05T05:06:09.240Z,39.70
2022-09-05T05:06:29.200Z,40.00
2022-09-05T05:08:53.094Z,40.00
2022-09-05T05:16:35.633Z,40.20
2022-09-05T05:18:08.471Z,40.50
2022-09-05T05:18:09.411Z,40.10
2022-09-05T05:20:43.026Z,40.30
2022-09-05T05:23:08.037Z,40.50
2022-09-05T05:25:44.459Z,40.40
2022-09-05T05:28:24.511Z,41.40
2022-09-05T05:31:10.624Z,40.50
2022-09-05T05:33:40.010Z,40.60
2022-09-05T05:36:14.555Z,40.40
2022-09-05T05:38:48.881Z,40.40
2022-09-05T05:41:21.335Z,40.30
2022-09-05T05:43:50.520Z,40.90
2022-09-05T05:46:33.149Z,41.00
2022-09-05T05:49:38.486Z,40.80
2022-09-05T05:52:22.691Z,40.70
2022-09-05T05:55:11.276Z,41.20
2022-09-05T05:58:09.485Z,41.30
2022-09-05T06:00:58.211Z,41.20
2022-09-05T06:03:53.946Z,41.20
2022-09-05T06:06:37.005Z,41.20
2022-09-05T06:14:48.955Z,41.50
2022-09-05T06:14:55.255Z,41.60
2022-09-05T06:16:30.454Z,41.10
2022-09-05T06:19:34.216Z,41.40
2022-09-05T06:22:44.456Z,41.90
2022-09-05T06:25:56.313Z,41.80
2022-09-05T06:28:36.542Z,41.90
2022-09-05T06:31:30.281Z,42.00
2022-09-05T06:34:29.110Z,42.10
2022-09-05T06:37:09.902Z,42.20
2022-09-05T06:39:58.378Z,42.60
2022-09-05T06:42:43.412Z,42.70
2022-09-05T06:45:30.912Z,42.60
2022-09-05T06:48:04.042Z,43.00
2022-09-05T06:51:08.317Z,43.00
2022-09-05T06:53:59.964Z,42.70
2022-09-05T06:56:40.854Z,43.00
2022-09-05T06:59:37.883Z,43.30
2022-09-05T07:02:13.956Z,43.50
2022-09-05T07:05:23.619Z,43.20
2022-09-05T07:07:41.338Z,43.30
2022-09-05T07:10:37.957Z,43.30
2022-09-05T07:13:13.937Z,43.20
2022-09-05T07:15:50.326Z,43.30
2022-09-05T07:18:26.285Z,43.50
2022-09-05T07:21:16.328Z,43.40
2022-09-05T07:24:09.966Z,43.50
2022-09-05T07:26:54.652Z,43.50
2022-09-05T07:29:27.835Z,43.70
2022-09-05T07:31:55.959Z,43.70
2022-09-05T07:34:27.914Z,43.70
2022-09-05T07:37:13.779Z,43.80
2022-09-05T07:39:48.354Z,43.80
2022-09-05T07:42:18.802Z,43.70
2022-09-05T07:44:51.541Z,43.80
2022-09-05T07:47:23.468Z,43.70
2022-09-05T07:51:45.827Z,43.80
2022-09-05T07:56:51.337Z,43.60
2022-09-05T07:56:55.053Z,43.70
2022-09-05T07:58:22.994Z,43.70
2022-09-05T08:00:56.012Z,43.80
2022-09-05T08:03:26.095Z,43.70
2022-09-05T08:05:54.282Z,43.70
2022-09-05T08:08:23.531Z,43.70
2022-09-05T08:11:25.254Z,43.50
2022-09-05T08:13:49.212Z,43.60
2022-09-05T08:16:20.087Z,43.40
2022-09-05T08:18:50.551Z,43.40
2022-09-05T08:21:26.991Z,43.30
2022-09-05T08:24:00.138Z,43.20
2022-09-05T08:26:36.681Z,43.30
2022-09-05T08:29:09.690Z,43.00
2022-09-05T08:31:42.319Z,43.00
2022-09-05T08:34:13.128Z,42.80
2022-09-05T08:36:43.672Z,42.60
2022-09-05T08:39:12.236Z,42.60
2022-09-05T08:42:03.337Z,42.60
2022-09-05T08:46:37.569Z,42.20
2022-09-05T08:47:41.511Z,42.50
2022-09-05T08:50:36.929Z,42.30
2022-09-05T08:53:26.284Z,42.10
2022-09-05T08:56:03.363Z,42.00
2022-09-05T08:59:31.612Z,42.10
2022-09-05T09:02:46.421Z,41.60
2022-09-05T09:05:14.125Z,41.80
2022-09-05T09:07:51.536Z,41.30
2022-09-05T09:10:30.801Z,41.40
2022-09-05T09:13:11.058Z,41.10
2022-09-05T09:15:44.786Z,40.80
2022-09-05T09:18:14.923Z,41.00
2022-09-05T09:20:51.398Z,40.90
2022-09-05T09:23:35.998Z,40.60
2022-09-05T09:26:11.396Z,40.40
2022-09-05T09:28:49.556Z,40.70
2022-09-05T09:31:53.685Z,40.50
2022-09-05T09:34:39.758Z,40.10
2022-09-05T09:37:59.360Z,40.10
2022-09-05T09:40:52.483Z,39.90
2022-09-05T09:43:33.678Z,40.20
2022-09-05T09:46:14.924Z,40.00
2022-09-05T09:49:01.755Z,39.70
2022-09-05T09:51:47.907Z,39.80
2022-09-05T09:54:39.573Z,39.50
2022-09-05T09:57:39.764Z,39.50
2022-09-05T10:00:10.134Z,38.80
2022-09-05T10:07:22.894Z,38.80
2022-09-05T10:10:48.638Z,39.00
2022-09-05T10:10:50.599Z,39.10
2022-09-05T10:12:22.898Z,38.90
2022-09-05T10:15:31.206Z,38.90
2022-09-05T10:18:31.736Z,38.60
2022-09-05T10:21:18.035Z,37.70
2022-09-05T10:24:19.835Z,37.60
2022-09-05T10:27:13.453Z,37.50
2022-09-05T10:29:45.539Z,38.10
2022-09-05T10:35:02.895Z,37.20
2022-09-05T10:35:22.589Z,37.80
2022-09-05T10:37:56.968Z,37.50
2022-09-05T10:40:25.603Z,36.00
2022-09-05T10:42:59.890Z,37.40
2022-09-05T10:45:38.062Z,36.90
2022-09-05T10:48:13.596Z,36.80
2022-09-05T10:50:43.600Z,36.50
2022-09-05T10:53:24.309Z,36.40
2022-09-05T10:56:06.595Z,36.50
2022-09-05T11:02:19.454Z,35.30
2022-09-05T11:02:27.529Z,35.50
2022-09-05T11:04:49.981Z,35.80
2022-09-05T11:07:29.189Z,35.30
2022-09-05T11:10:04.269Z,35.60
2022-09-05T11:12:57.704Z,34.90
2022-09-05T11:15:32.326Z,34.60
2022-09-05T11:18:02.962Z,34.80
2022-09-05T11:20:49.646Z,34.50
2022-09-05T11:23:21.090Z,33.80
2022-09-05T11:25:55.937Z,34.00
2022-09-05T11:28:31.227Z,34.20
2022-09-05T11:31:01.743Z,33.80
2022-09-05T11:39:10.734Z,33.50
2022-09-05T11:40:02.933Z,33.50
2022-09-05T11:40:31.657Z,33.90
2022-09-05T11:43:29.845Z,33.90
2022-09-05T11:46:18.629Z,33.90
2022-09-05T11:49:23.034Z,33.80
2022-09-05T11:52:26.522Z,33.30
2022-09-05T11:55:22.922Z,33.90
2022-09-05T11:58:43.912Z,33.70
2022-09-05T12:01:41.903Z,32.70
2022-09-05T12:04:15.142Z,32.70
2022-09-05T12:07:29.776Z,33.10
2022-09-05T12:10:46.385Z,33.20
2022-09-05T12:13:26.525Z,33.00
2022-09-05T12:16:08.405Z,33.00
2022-09-05T12:18:43.570Z,33.00
2022-09-05T12:21:25.445Z,32.70
2022-09-05T12:25:16.603Z,32.10
2022-09-05T12:27:40.033Z,32.20
2022-09-05T12:29:49.439Z,32.20
2022-09-05T12:33:32.750Z,31.70
2022-09-05T12:36:11.565Z,32.20
2022-09-05T12:40:04.959Z,31.60
2022-09-05T12:41:44.041Z,31.60
2022-09-05T12:44:37.895Z,31.90
2022-09-05T12:47:16.965Z,32.00
2022-09-05T12:49:56.254Z,31.50
2022-09-05T12:52:41.166Z,32.30
2022-09-05T12:55:14.747Z,32.40
2022-09-05T13:02:59.294Z,31.60
2022-09-05T13:03:09.165Z,31.90
2022-09-05T13:03:40.478Z,31.60
2022-09-05T13:06:25.871Z,30.50
2022-09-05T13:09:00.237Z,31.50
2022-09-05T13:14:53.193Z,30.60
2022-09-05T13:14:58.325Z,30.40
2022-09-05T13:17:09.797Z,31.10
2022-09-05T13:19:40.136Z,30.10
2022-09-05T13:22:10.441Z,30.60
2022-09-05T13:24:40.231Z,31.40
2022-09-05T13:27:13.412Z,30.30
2022-09-05T13:30:02.146Z,30.00
2022-09-05T13:38:01.020Z,30.90
2022-09-05T13:38:07.905Z,29.90
2022-09-05T13:41:03.876Z,29.90
2022-09-05T13:43:34.014Z,30.00
2022-09-05T13:46:09.650Z,30.10
2022-09-05T13:51:38.954Z,30.00
2022-09-05T13:54:32.484Z,30.50
2022-09-05T13:57:15.714Z,30.00
2022-09-05T14:00:30.614Z,30.00
2022-09-05T14:03:37.440Z,30.40
2022-09-05T14:06:46.415Z,30.40
2022-09-05T14:09:40.966Z,29.50
2022-09-05T14:12:18.049Z,30.00
2022-09-05T14:17:53.435Z,30.00
2022-09-05T14:20:23.595Z,30.00
2022-09-05T14:22:53.857Z,29.30
2022-09-05T14:25:25.921Z,29.50
2022-09-05T14:27:54.706Z,29.50
2022-09-05T14:32:39.882Z,29.60
2022-09-05T14:37:40.626Z,29.60
2022-09-05T14:37:49.105Z,29.20
2022-09-05T14:39:51.332Z,29.10
2022-09-05T14:42:38.493Z,29.70
2022-09-05T14:45:36.470Z,29.40
2022-09-05T14:48:28.328Z,29.60
2022-09-05T14:51:07.441Z,29.20
2022-09-05T14:54:02.709Z,29.30
2022-09-05T14:57:47.140Z,29.10
2022-09-05T15:02:40.791Z,28.60
2022-09-05T15:02:49.555Z,28.90
2022-09-05T15:05:17.050Z,29.00
2022-09-05T15:07:45.463Z,29.00
2022-09-05T15:12:18.121Z,28.60
2022-09-05T15:13:19.897Z,28.60
2022-09-05T15:15:59.064Z,28.90
2022-09-05T15:18:31.972Z,28.60
2022-09-05T15:21:33.545Z,28.70
2022-09-05T15:24:07.894Z,28.50
2022-09-05T15:26:48.253Z,28.40
2022-09-05T15:29:22.350Z,28.40
2022-09-05T15:31:53.227Z,28.20
2022-09-05T15:34:38.686Z,28.40
2022-09-05T15:37:22.341Z,28.10
2022-09-05T15:40:00.810Z,28.40
2022-09-05T15:42:31.026Z,28.40
2022-09-05T15:45:09.693Z,28.40
2022-09-05T15:47:44.842Z,28.40
2022-09-05T15:50:22.434Z,28.60
2022-09-05T15:52:53.465Z,28.80
2022-09-05T15:55:24.206Z,28.20
2022-09-05T15:57:54.754Z,28.60
2022-09-05T16:00:39.369Z,28.90
2022-09-05T16:03:59.528Z,28.70
2022-09-05T16:10:30.224Z,28.20
2022-09-05T16:10:42.874Z,28.10
2022-09-05T16:14:29.723Z,28.40
2022-09-05T16:23:12.992Z,28.50
2022-09-05T16:23:27.597Z,28.70
2022-09-05T16:23:28.090Z,28.70
2022-09-05T16:25:33.205Z,28.90
2022-09-05T16:28:02.979Z,29.00
2022-09-05T16:30:31.987Z,28.80
2022-09-05T16:33:04.169Z,29.00
2022-09-05T16:35:37.871Z,29.20
2022-09-05T16:38:24.077Z,29.20
2022-09-05T16:41:07.730Z,29.00
2022-09-05T16:43:42.183Z,29.20
2022-09-05T16:46:16.196Z,29.00
2022-09-05T16:48:55.219Z,29.40
2022-09-05T16:51:35.384Z,29.40
2022-09-05T16:54:10.896Z,29.40
2022-09-05T16:56:42.318Z,29.50
2022-09-05T16:59:14.350Z,29.70
2022-09-05T17:02:06.695Z,29.50
2022-09-05T17:05:03.323Z,29.70
2022-09-05T17:07:43.628Z,29.70
2022-09-05T17:10:16.030Z,30.00
2022-09-05T17:12:43.341Z,30.00
2022-09-05T17:15:13.615Z,30.00
2022-09-05T17:18:19.888Z,30.10
2022-09-05T17:20:43.110Z,30.00
2022-09-05T17:28:47.340Z,30.10
2022-09-05T17:29:26.221Z,30.10
2022-09-05T17:29:47.363Z,30.50
2022-09-05T17:31:59.239Z,30.50
2022-09-05T17:34:42.631Z,30.80
2022-09-05T17:37:34.182Z,30.80
2022-09-05T17:40:32.252Z,30.80
2022-09-05T17:43:03.070Z,31.20
2022-09-05T17:45:40.039Z,31.20
2022-09-05T17:48:11.118Z,31.30
2022-09-05T17:50:46.818Z,31.40
2022-09-05T17:53:25.138Z,31.60
2022-09-05T17:56:11.374Z,31.70
2022-09-05T17:58:49.507Z,31.70
2022-09-05T18:01:19.618Z,32.00
2022-09-05T18:04:11.317Z,32.00
2022-09-05T18:07:00.462Z,32.10
2022-09-05T18:09:49.770Z,32.40
2022-09-05T18:13:13.457Z,32.20
2022-09-05T18:16:06.831Z,32.40
2022-09-05T18:19:27.859Z,32.50
2022-09-05T18:21:23.134Z,32.80
2022-09-05T18:23:58.107Z,32.90
2022-09-05T18:26:27.661Z,32.90
2022-09-05T18:29:14.651Z,33.00
2022-09-05T18:32:02.266Z,33.00
2022-09-05T18:34:46.197Z,33.10
2022-09-05T18:37:42.997Z,33.20
2022-09-05T18:40:37.350Z,33.40
2022-09-05T18:43:10.958Z,33.50
2022-09-05T18:45:52.381Z,33.80
2022-09-05T18:48:29.017Z,33.90
2022-09-05T18:51:15.368Z,34.10
2022-09-05T18:53:47.226Z,35.00
2022-09-05T18:56:22.146Z,34.50
2022-09-05T18:59:09.634Z,34.60
2022-09-05T19:01:42.808Z,34.70
2022-09-05T19:04:39.281Z,35.10
2022-09-05T19:07:09.744Z,35.10
2022-09-05T19:09:38.018Z,35.10
2022-09-05T19:12:33.542Z,35.10
2022-09-05T19:14:57.045Z,35.30
2022-09-05T19:17:33.739Z,35.50
2022-09-05T19:20:31.207Z,35.50
2022-09-05T19:23:10.668Z,35.70
2022-09-05T19:25:41.893Z,35.80
2022-09-05T19:36:36.306Z,35.90
2022-09-05T19:36:47.092Z,36.10
2022-09-05T19:36:48.764Z,36.20
2022-09-05T19:36:55.466Z,36.00
2022-09-05T19:41:39.891Z,36.50
2022-09-05T19:47:26.820Z,36.50
2022-09-05T19:47:56.130Z,36.60
2022-09-05T19:48:07.434Z,36.60
2022-09-05T19:50:36.452Z,36.60
2022-09-05T19:53:05.614Z,36.60
2022-09-05T19:55:37.883Z,36.70
2022-09-05T19:58:20.225Z,36.60
2022-09-05T20:01:01.424Z,36.70
2022-09-05T20:03:30.506Z,36.70
2022-09-05T20:06:28.802Z,36.80
2022-09-05T20:09:08.643Z,36.80
2022-09-05T20:11:37.454Z,36.70
2022-09-05T20:14:18.629Z,36.90
2022-09-05T20:16:48.115Z,37.10
2022-09-05T20:19:28.820Z,37.00
2022-09-05T20:21:59.117Z,36.90
2022-09-05T20:24:37.078Z,36.90
2022-09-05T20:27:04.447Z,37.10
2022-09-05T20:29:54.160Z,37.20
2022-09-05T20:32:34.996Z,37.40
2022-09-05T20:40:43.299Z,37.90
2022-09-05T20:43:17.745Z,37.10
2022-09-05T20:43:29.815Z,37.20
2022-09-05T20:43:53.361Z,37.40
2022-09-05T20:50:12.991Z,37.50
2022-09-05T20:54:19.903Z,37.30
2022-09-05T20:54:22.374Z,37.40
2022-09-05T20:54:58.194Z,37.50
2022-09-05T20:57:33.085Z,37.70
2022-09-05T21:00:05.330Z,37.60
2022-09-05T21:02:33.364Z,37.40
2022-09-05T21:05:20.054Z,37.10
2022-09-05T21:07:48.862Z,37.40
2022-09-05T21:10:26.705Z,37.70
2022-09-05T21:12:56.910Z,37.50
2022-09-05T21:15:52.648Z,37.40
2022-09-05T21:18:16.174Z,37.40
2022-09-05T21:20:52.072Z,37.40
2022-09-05T21:23:28.034Z,37.50
2022-09-05T21:25:58.040Z,37.50
2022-09-05T21:28:32.621Z,37.90
2022-09-05T21:31:14.245Z,37.70
2022-09-05T21:33:45.837Z,38.10
2022-09-05T21:36:15.122Z,37.70
2022-09-05T21:38:42.993Z,37.80
2022-09-05T21:41:16.003Z,38.10
2022-09-05T21:47:33.335Z,38.10
2022-09-05T21:47:47.094Z,37.80
2022-09-05T21:49:16.467Z,38.20
2022-09-05T21:51:48.041Z,38.10
2022-09-05T21:59:16.247Z,38.30
2022-09-05T21:59:24.054Z,38.20
2022-09-05T21:59:56.699Z,38.20
2022-09-05T22:02:24.610Z,38.40
2022-09-05T22:04:51.606Z,38.20
2022-09-05T22:07:27.941Z,38.30
2022-09-05T22:09:59.698Z,38.30
2022-09-05T22:12:30.727Z,38.20
2022-09-05T22:14:57.776Z,38.30
2022-09-05T22:17:45.719Z,38.10
2022-09-05T22:20:15.625Z,38.40
2022-09-05T22:22:42.992Z,38.50
2022-09-05T22:25:16.145Z,38.70
2022-09-05T22:27:44.527Z,38.40
2022-09-05T22:30:12.602Z,38.70
2022-09-05T22:32:39.390Z,38.20
2022-09-05T22:35:27.391Z,38.20
2022-09-05T22:38:00.359Z,38.40
2022-09-05T22:40:29.047Z,38.60
2022-09-05T22:42:58.234Z,38.50
2022-09-05T22:45:25.112Z,38.60
2022-09-05T22:47:52.092Z,38.50
2022-09-05T22:50:19.146Z,38.50
2022-09-05T22:52:46.219Z,38.50
2022-09-05T22:55:13.088Z,38.50
2022-09-05T22:57:40.420Z,38.60
2022-09-05T23:00:10.241Z,38.60
2022-09-05T23:02:37.000Z,38.40
2022-09-05T23:05:04.787Z,38.40
2022-09-05T23:07:31.514Z,38.40
2022-09-05T23:09:58.213Z,38.70
2022-09-05T23:12:25.073Z,38.80
2022-09-05T23:14:51.822Z,38.60
2022-09-05T23:17:19.859Z,39.00
2022-09-05T23:19:46.564Z,38.90
2022-09-05T23:22:13.414Z,38.60
2022-09-05T23:24:40.175Z,39.40
2022-09-05T23:27:06.965Z,38.80
2022-09-05T23:29:33.701Z,38.80
2022-09-05T23:32:00.484Z,38.90
2022-09-05T23:34:28.511Z,38.90
2022-09-05T23:36:55.194Z,39.60
2022-09-05T23:39:21.874Z,38.80
2022-09-05T23:41:48.600Z,38.90
2022-09-05T23:44:15.335Z,38.80
2022-09-05T23:46:42.101Z,38.80
2022-09-05T23:49:08.901Z,38.80
2022-09-05T23:51:37.038Z,38.70
2022-09-05T23:54:03.784Z,38.80
2022-09-05T23:56:30.555Z,38.70
2022-09-05T23:58:57.287Z,38.90
